Time;durP1;ratioP1;P1;durP2;ratioP2;P2;SDS_P1;SDS_P2;PMS_P1;PMS_P2;Temp;Humidity;BMP_temperature;BMP_pressure;BME280_temperature;BME280_humidity;BME280_pressure;Samples;Min_cycle;Max_cycle;Signal;HPM_P1;HPM_P2
2022/01/17 00:01:07;;;;;;;5.37;1.30;;;;;;;;;;4416716;32;20068;-50
2022/01/17 00:03:36;;;;;;;5.80;1.25;;;;;;;;;;4415064;32;20038;-50
2022/01/17 00:06:04;;;;;;;4.32;0.95;;;;;;;;;;4401274;32;20373;-51
2022/01/17 00:08:33;;;;;;;3.92;1.10;;;;;;;;;;4413982;32;20454;-51
2022/01/17 00:11:01;;;;;;;4.00;1.27;;;;;;;;;;4411590;32;20034;-49
2022/01/17 00:13:30;;;;;;;3.30;1.20;;;;;;;;;;4410356;32;20399;-49
2022/01/17 00:16:24;;;;;;;3.20;1.30;;;;;;;;;;4416807;32;20051;-50
2022/01/17 00:21:17;;;;;;;5.53;1.12;;;;;;;;;;4417433;32;20026;-51
2022/01/17 00:23:45;;;;;;;4.43;1.00;;;;;;;;;;4402431;32;20039;-51
2022/01/17 00:26:14;;;;;;;3.80;1.08;;;;;;;;;;4408455;32;20456;-51
2022/01/17 00:28:42;;;;;;;3.95;1.02;;;;;;;;;;4403500;32;20114;-50
2022/01/17 00:31:11;;;;;;;4.43;1.12;;;;;;;;;;4404747;32;20100;-50
2022/01/17 00:33:39;;;;;;;5.20;1.15;;;;;;;;;;4410417;32;20045;-51
2022/01/17 00:36:08;;;;;;;3.95;1.10;;;;;;;;;;4410014;32;20087;-51
2022/01/17 00:38:36;;;;;;;4.18;1.08;;;;;;;;;;4410442;32;20420;-49
2022/01/17 00:41:04;;;;;;;5.22;1.15;;;;;;;;;;4410447;32;20471;-49
2022/01/17 00:43:34;;;;;;;6.62;1.65;;;;;;;;;;4409744;32;20043;-50
2022/01/17 00:46:03;;;;;;;3.97;1.12;;;;;;;;;;4414015;32;20425;-50
2022/01/17 00:48:32;;;;;;;3.87;1.20;;;;;;;;;;4409599;32;20030;-50
2022/01/17 00:51:00;;;;;;;5.45;1.20;;;;;;;;;;4411586;32;20069;-53
2022/01/17 00:53:30;;;;;;;2.87;0.90;;;;;;;;;;4407707;32;20437;-50
2022/01/17 00:55:58;;;;;;;4.22;1.10;;;;;;;;;;4413328;32;20042;-49
2022/01/17 00:58:27;;;;;;;3.30;1.12;;;;;;;;;;4422276;32;20039;-50
2022/01/17 01:00:55;;;;;;;4.40;1.10;;;;;;;;;;4422091;32;20038;-51
2022/01/17 01:03:24;;;;;;;2.97;0.90;;;;;;;;;;4422291;32;20031;-50
2022/01/17 01:05:52;;;;;;;4.05;1.08;;;;;;;;;;4422062;32;20110;-50
2022/01/17 01:08:20;;;;;;;3.08;1.10;;;;;;;;;;4418573;32;20073;-53
2022/01/17 01:10:49;;;;;;;5.28;1.12;;;;;;;;;;4419759;32;20097;-50
2022/01/17 01:13:22;;;;;;;3.62;1.20;;;;;;;;;;4421320;32;20039;-52
2022/01/17 01:19:05;;;;;;;4.28;1.10;;;;;;;;;;4417561;32;20472;-51
2022/01/17 01:27:41;;;;;;;4.65;1.00;;;;;;;;;;4406887;32;20027;-50
2022/01/17 01:30:01;;;;;;;2.58;1.10;;;;;;;;;;4406311;32;20319;-51
2022/01/17 01:32:38;;;;;;;3.10;1.10;;;;;;;;;;4404925;32;20111;-49
2022/01/17 01:35:10;;;;;;;2.62;1.15;;;;;;;;;;4407010;32;20073;-52
2022/01/17 01:37:38;;;;;;;4.90;1.25;;;;;;;;;;4406777;32;20031;-50
2022/01/17 01:40:07;;;;;;;5.93;1.12;;;;;;;;;;4406867;32;20124;-50
2022/01/17 01:42:35;;;;;;;5.62;1.40;;;;;;;;;;4406144;32;20026;-51
2022/01/17 01:45:07;;;;;;;3.17;1.05;;;;;;;;;;4403743;32;20090;-49
2022/01/17 01:47:35;;;;;;;4.22;1.23;;;;;;;;;;4406476;32;20452;-50
2022/01/17 01:50:05;;;;;;;3.50;1.20;;;;;;;;;;4411011;32;20037;-50
2022/01/17 01:52:33;;;;;;;3.53;1.08;;;;;;;;;;4421397;32;20105;-51
2022/01/17 01:55:01;;;;;;;5.12;1.23;;;;;;;;;;4421061;32;20058;-51
2022/01/17 01:57:30;;;;;;;2.65;1.02;;;;;;;;;;4420312;32;20435;-51
2022/01/17 01:59:58;;;;;;;2.97;1.00;;;;;;;;;;4421215;32;20433;-51
2022/01/17 02:02:26;;;;;;;4.30;0.90;;;;;;;;;;4418146;32;20042;-53
2022/01/17 02:04:55;;;;;;;5.20;1.10;;;;;;;;;;4409511;32;20053;-50
2022/01/17 02:07:23;;;;;;;4.60;1.40;;;;;;;;;;4408019;32;20493;-50
2022/01/17 02:09:51;;;;;;;2.62;0.93;;;;;;;;;;4408829;32;20038;-51
2022/01/17 02:12:21;;;;;;;4.47;1.40;;;;;;;;;;4417587;32;20065;-52
2022/01/17 02:14:50;;;;;;;5.40;1.10;;;;;;;;;;4417095;32;20066;-53
2022/01/17 02:17:20;;;;;;;4.85;1.30;;;;;;;;;;4405038;32;20655;-51
2022/01/17 02:20:04;;;;;;;6.55;1.25;;;;;;;;;;4409145;32;20065;-50
2022/01/17 02:22:33;;;;;;;2.87;0.90;;;;;;;;;;4411143;32;20062;-51
2022/01/17 02:25:01;;;;;;;5.45;1.08;;;;;;;;;;4403225;32;20098;-52
2022/01/17 02:27:30;;;;;;;2.45;1.00;;;;;;;;;;4416807;32;20448;-51
2022/01/17 02:29:58;;;;;;;2.53;1.00;;;;;;;;;;4408193;32;20076;-50
2022/01/17 02:32:26;;;;;;;3.28;0.95;;;;;;;;;;4414009;32;20076;-50
2022/01/17 02:35:10;;;;;;;4.53;1.00;;;;;;;;;;4411309;32;20084;-50
2022/01/17 02:37:39;;;;;;;4.87;1.25;;;;;;;;;;4408740;32;20072;-52
2022/01/17 02:40:08;;;;;;;5.05;1.02;;;;;;;;;;4417813;32;20089;-50
2022/01/17 02:42:37;;;;;;;5.15;1.20;;;;;;;;;;4417742;32;20436;-50
2022/01/17 02:45:12;;;;;;;2.55;1.10;;;;;;;;;;4413386;32;20018;-50
2022/01/17 02:47:41;;;;;;;3.85;1.12;;;;;;;;;;4418467;32;20085;-51
2022/01/17 02:50:09;;;;;;;2.85;1.20;;;;;;;;;;4407735;32;20062;-50
2022/01/17 02:52:38;;;;;;;2.33;0.80;;;;;;;;;;4411543;32;20095;-50
2022/01/17 02:55:06;;;;;;;4.78;1.30;;;;;;;;;;4416587;32;20038;-52
2022/01/17 02:57:35;;;;;;;4.28;1.00;;;;;;;;;;4414089;32;20045;-50
2022/01/17 03:00:04;;;;;;;5.18;1.12;;;;;;;;;;4409274;32;20417;-50
2022/01/17 03:02:32;;;;;;;2.50;0.80;;;;;;;;;;4414702;32;20059;-52
2022/01/17 03:05:01;;;;;;;2.80;1.20;;;;;;;;;;4409474;32;20077;-50
2022/01/17 03:07:29;;;;;;;5.03;1.27;;;;;;;;;;4415670;32;20042;-50
2022/01/17 03:10:07;;;;;;;3.90;1.00;;;;;;;;;;4412747;32;20072;-50
2022/01/17 03:12:35;;;;;;;4.62;1.30;;;;;;;;;;4407861;32;20030;-54
2022/01/17 03:15:04;;;;;;;4.60;1.25;;;;;;;;;;4409780;32;20103;-53
2022/01/17 03:17:32;;;;;;;7.97;1.23;;;;;;;;;;4411120;32;20467;-54
2022/01/17 03:20:01;;;;;;;3.15;1.25;;;;;;;;;;4411640;32;20108;-51
2022/01/17 03:22:29;;;;;;;2.87;0.95;;;;;;;;;;4410478;32;20072;-53
2022/01/17 03:24:57;;;;;;;3.00;1.15;;;;;;;;;;4405929;32;20046;-51
2022/01/17 03:27:26;;;;;;;4.07;1.20;;;;;;;;;;4420761;32;20444;-54
2022/01/17 03:29:54;;;;;;;4.45;1.33;;;;;;;;;;4404352;32;20026;-53
2022/01/17 03:32:22;;;;;;;5.15;1.25;;;;;;;;;;4414655;32;20056;-53
2022/01/17 03:34:50;;;;;;;5.37;1.40;;;;;;;;;;4414044;32;20118;-53
2022/01/17 03:37:19;;;;;;;5.68;1.15;;;;;;;;;;4412671;32;20118;-52
2022/01/17 03:39:47;;;;;;;5.00;1.25;;;;;;;;;;4403212;32;20409;-53
2022/01/17 03:42:18;;;;;;;5.62;1.40;;;;;;;;;;4408419;32;20468;-54
2022/01/17 03:44:47;;;;;;;3.87;1.10;;;;;;;;;;4406901;32;20042;-52
2022/01/17 03:47:15;;;;;;;5.30;1.40;;;;;;;;;;4413601;32;20114;-53
2022/01/17 03:49:44;;;;;;;5.05;1.35;;;;;;;;;;4411183;32;20430;-52
2022/01/17 03:52:12;;;;;;;4.32;0.95;;;;;;;;;;4410535;32;20061;-52
2022/01/17 03:54:40;;;;;;;4.10;1.00;;;;;;;;;;4412988;32;20104;-50
2022/01/17 03:57:09;;;;;;;5.18;1.20;;;;;;;;;;4405062;32;20098;-53
2022/01/17 03:59:37;;;;;;;3.10;1.10;;;;;;;;;;4416051;32;20080;-53
2022/01/17 04:02:06;;;;;;;6.87;1.17;;;;;;;;;;4414658;32;20060;-50
2022/01/17 04:04:35;;;;;;;2.87;1.35;;;;;;;;;;4407199;32;20087;-54
2022/01/17 04:07:03;;;;;;;4.12;1.33;;;;;;;;;;4412115;32;20047;-53
2022/01/17 04:09:31;;;;;;;5.75;1.48;;;;;;;;;;4414551;32;20057;-53
2022/01/17 04:12:00;;;;;;;5.50;1.20;;;;;;;;;;4407629;32;20371;-51
2022/01/17 04:14:34;;;;;;;2.65;1.10;;;;;;;;;;4412835;32;20042;-54
2022/01/17 04:17:02;;;;;;;;;;;;;;;;;;4415571;32;20098;-54
2022/01/17 04:19:31;;;;;;;6.85;1.40;;;;;;;;;;4412042;32;19981;-51
2022/01/17 04:21:59;;;;;;;3.97;1.20;;;;;;;;;;4410022;32;20042;-53
2022/01/17 04:24:28;;;;;;;4.72;1.27;;;;;;;;;;4407717;32;20456;-53
2022/01/17 04:26:56;;;;;;;7.05;1.23;;;;;;;;;;4405361;32;20054;-54
2022/01/17 04:29:24;;;;;;;7.20;1.20;;;;;;;;;;4409484;32;20064;-54
2022/01/17 04:31:53;;;;;;;4.97;1.23;;;;;;;;;;4408923;32;20054;-54
2022/01/17 04:34:21;;;;;;;6.45;1.40;;;;;;;;;;4403175;32;20035;-53
2022/01/17 04:36:49;;;;;;;5.65;1.50;;;;;;;;;;4409473;32;20049;-51
2022/01/17 04:39:18;;;;;;;3.83;1.30;;;;;;;;;;4410460;32;20111;-53
2022/01/17 04:41:46;;;;;;;4.15;1.30;;;;;;;;;;4413837;32;20065;-53
2022/01/17 04:47:02;;;;;;;3.85;0.98;;;;;;;;;;4405006;32;20051;-54
2022/01/17 04:49:30;;;;;;;5.62;1.42;;;;;;;;;;4414575;32;20141;-54
2022/01/17 04:51:58;;;;;;;4.15;1.12;;;;;;;;;;4408006;32;20069;-50
2022/01/17 04:54:41;;;;;;;5.72;1.30;;;;;;;;;;4408856;32;20091;-51
2022/01/17 04:57:10;;;;;;;4.25;1.40;;;;;;;;;;4410753;32;20046;-53
2022/01/17 04:59:39;;;;;;;2.67;1.15;;;;;;;;;;4411099;32;20066;-52
2022/01/17 05:02:08;;;;;;;4.20;1.20;;;;;;;;;;4414144;32;20441;-53
2022/01/17 05:04:36;;;;;;;4.22;1.17;;;;;;;;;;4402381;32;20038;-52
2022/01/17 05:07:05;;;;;;;2.47;1.15;;;;;;;;;;4411764;32;20448;-53
2022/01/17 05:09:35;;;;;;;3.67;1.02;;;;;;;;;;4409007;32;20037;-53
2022/01/17 05:12:03;;;;;;;5.75;1.37;;;;;;;;;;4412444;32;20444;-51
2022/01/17 05:14:32;;;;;;;2.50;1.10;;;;;;;;;;4401298;32;20042;-53
2022/01/17 05:17:09;;;;;;;2.92;1.20;;;;;;;;;;4402472;32;20055;-50
2022/01/17 05:19:53;;;;;;;6.10;1.40;;;;;;;;;;4401010;32;20035;-54
2022/01/17 05:22:22;;;;;;;5.55;1.15;;;;;;;;;;4408415;32;20092;-53
2022/01/17 05:24:51;;;;;;;6.78;1.50;;;;;;;;;;4412502;32;20414;-53
2022/01/17 05:27:19;;;;;;;4.10;1.20;;;;;;;;;;4411792;32;20374;-51
2022/01/17 05:29:48;;;;;;;7.57;1.23;;;;;;;;;;4409305;32;20043;-51
2022/01/17 05:32:17;;;;;;;4.80;1.30;;;;;;;;;;4408948;32;20039;-50
2022/01/17 05:34:45;;;;;;;4.15;1.25;;;;;;;;;;4406676;32;20091;-50
2022/01/17 05:37:13;;;;;;;2.97;1.10;;;;;;;;;;4411885;32;20022;-49
2022/01/17 05:39:43;;;;;;;4.95;1.20;;;;;;;;;;4405525;32;20080;-53
2022/01/17 05:42:17;;;;;;;4.93;1.12;;;;;;;;;;4408668;32;20094;-53
2022/01/17 05:44:47;;;;;;;2.97;1.17;;;;;;;;;;4412999;32;20043;-50
2022/01/17 05:47:16;;;;;;;8.45;1.40;;;;;;;;;;4409383;32;20052;-51
2022/01/17 05:49:44;;;;;;;4.78;1.17;;;;;;;;;;4408002;32;20047;-52
2022/01/17 05:52:13;;;;;;;4.50;1.48;;;;;;;;;;4409634;32;20062;-53
2022/01/17 05:54:42;;;;;;;3.35;1.10;;;;;;;;;;4409561;32;20072;-50
2022/01/17 05:57:10;;;;;;;5.43;1.30;;;;;;;;;;4407041;32;20054;-50
2022/01/17 05:59:40;;;;;;;4.03;1.00;;;;;;;;;;4414032;32;20103;-51
2022/01/17 06:02:08;;;;;;;4.43;1.30;;;;;;;;;;4405020;32;20039;-52
2022/01/17 06:04:37;;;;;;;5.57;1.20;;;;;;;;;;4410279;32;20057;-50
2022/01/17 06:07:05;;;;;;;5.43;1.30;;;;;;;;;;4408982;32;20052;-51
2022/01/17 06:09:34;;;;;;;4.68;1.40;;;;;;;;;;4420387;32;20106;-53
2022/01/17 06:12:04;;;;;;;3.95;1.20;;;;;;;;;;4412169;32;20034;-50
2022/01/17 06:14:32;;;;;;;4.30;1.33;;;;;;;;;;4409938;32;20037;-51
2022/01/17 06:17:00;;;;;;;3.33;1.00;;;;;;;;;;4416913;32;20053;-50
2022/01/17 06:19:29;;;;;;;2.35;0.95;;;;;;;;;;4414962;32;20080;-52
2022/01/17 06:21:57;;;;;;;3.92;1.55;;;;;;;;;;4413261;32;20038;-50
2022/01/17 06:24:26;;;;;;;6.43;1.20;;;;;;;;;;4409996;32;20439;-54
2022/01/17 06:26:54;;;;;;;4.37;1.27;;;;;;;;;;4407234;32;20671;-51
2022/01/17 06:29:22;;;;;;;3.22;0.98;;;;;;;;;;4407980;32;20094;-54
2022/01/17 06:31:51;;;;;;;6.80;1.50;;;;;;;;;;4409176;32;20174;-50
2022/01/17 06:34:20;;;;;;;3.08;1.30;;;;;;;;;;4405221;32;20119;-53
2022/01/17 06:36:48;;;;;;;4.57;1.17;;;;;;;;;;4407702;32;20038;-53
2022/01/17 06:39:16;;;;;;;4.53;1.35;;;;;;;;;;4414092;32;20068;-53
2022/01/17 06:41:45;;;;;;;3.75;1.30;;;;;;;;;;4418330;32;20052;-50
2022/01/17 06:44:13;;;;;;;6.72;1.30;;;;;;;;;;4415950;32;20500;-50
2022/01/17 06:46:41;;;;;;;4.35;1.25;;;;;;;;;;4416204;32;20070;-52
2022/01/17 06:49:10;;;;;;;2.42;1.17;;;;;;;;;;4407548;32;20343;-48
2022/01/17 06:51:38;;;;;;;5.30;1.30;;;;;;;;;;4413038;32;20087;-49
2022/01/17 06:54:07;;;;;;;2.90;1.20;;;;;;;;;;4404785;32;20046;-49
2022/01/17 06:56:35;;;;;;;5.40;1.30;;;;;;;;;;4404688;32;20035;-53
2022/01/17 06:59:04;;;;;;;5.30;1.35;;;;;;;;;;4414905;32;20047;-51
2022/01/17 07:01:37;;;;;;;4.00;1.20;;;;;;;;;;4411157;32;20469;-49
2022/01/17 07:04:07;;;;;;;4.57;1.45;;;;;;;;;;4414638;32;20103;-51
2022/01/17 07:06:37;;;;;;;3.53;1.20;;;;;;;;;;4407780;32;20083;-49
2022/01/17 07:09:05;;;;;;;3.67;1.02;;;;;;;;;;4405134;32;20050;-50
2022/01/17 07:11:38;;;;;;;5.80;1.27;;;;;;;;;;4411370;32;20071;-49
2022/01/17 07:14:08;;;;;;;3.50;1.20;;;;;;;;;;4407201;32;20105;-52
2022/01/17 07:16:38;;;;;;;2.00;1.08;;;;;;;;;;4412193;32;20089;-51
2022/01/17 07:19:06;;;;;;;2.85;1.23;;;;;;;;;;4413389;32;20069;-52
2022/01/17 07:21:35;;;;;;;3.78;0.98;;;;;;;;;;4417563;32;20057;-50
2022/01/17 07:24:04;;;;;;;3.90;1.08;;;;;;;;;;4412948;32;20404;-49
2022/01/17 07:26:32;;;;;;;3.22;1.25;;;;;;;;;;4412788;32;20030;-52
2022/01/17 07:29:00;;;;;;;3.45;1.27;;;;;;;;;;4402270;32;20054;-50
2022/01/17 07:31:29;;;;;;;3.67;1.27;;;;;;;;;;4416026;32;20077;-52
2022/01/17 07:33:57;;;;;;;2.70;1.25;;;;;;;;;;4411764;32;20038;-50
2022/01/17 07:36:29;;;;;;;4.10;1.27;;;;;;;;;;4414181;32;20053;-50
2022/01/17 07:38:58;;;;;;;1.98;1.10;;;;;;;;;;4408130;32;20412;-51
2022/01/17 07:41:26;;;;;;;3.42;1.33;;;;;;;;;;4418970;32;20064;-50
2022/01/17 07:44:01;;;;;;;1.70;0.98;;;;;;;;;;4409614;32;20468;-53
2022/01/17 07:46:36;;;;;;;3.58;1.30;;;;;;;;;;4405724;32;20074;-50
2022/01/17 07:51:42;;;;;;;3.95;1.35;;;;;;;;;;4415041;32;20053;-52
2022/01/17 07:54:14;;;;;;;2.42;1.35;;;;;;;;;;4406269;32;20042;-53
2022/01/17 07:56:43;;;;;;;3.53;1.40;;;;;;;;;;4409006;32;20073;-51
2022/01/17 07:59:12;;;;;;;1.52;1.05;;;;;;;;;;4414711;32;20074;-51
2022/01/17 08:01:41;;;;;;;4.10;1.42;;;;;;;;;;4417423;32;20022;-52
2022/01/17 08:04:11;;;;;;;4.35;1.48;;;;;;;;;;4411570;32;20410;-53
2022/01/17 08:06:39;;;;;;;3.15;1.20;;;;;;;;;;4405501;32;20345;-52
2022/01/17 08:09:10;;;;;;;4.03;1.10;;;;;;;;;;4403995;32;20434;-50
2022/01/17 08:11:59;;;;;;;3.60;1.37;;;;;;;;;;4414439;32;20081;-53
2022/01/17 08:14:27;;;;;;;4.37;1.05;;;;;;;;;;4403839;32;20027;-51
2022/01/17 08:16:56;;;;;;;1.52;1.00;;;;;;;;;;4412140;32;20038;-52
2022/01/17 08:19:25;;;;;;;2.35;1.00;;;;;;;;;;4414573;32;20053;-51
2022/01/17 08:21:59;;;;;;;3.22;1.10;;;;;;;;;;4407856;32;20096;-53
2022/01/17 08:24:28;;;;;;;2.33;1.05;;;;;;;;;;4415170;32;20046;-51
2022/01/17 08:26:57;;;;;;;6.40;1.12;;;;;;;;;;4421448;32;20492;-50
2022/01/17 08:29:28;;;;;;;3.80;1.30;;;;;;;;;;4420758;32;20391;-50
2022/01/17 08:31:58;;;;;;;3.28;1.20;;;;;;;;;;4410533;32;20058;-51
2022/01/17 08:34:26;;;;;;;4.97;1.33;;;;;;;;;;4407538;32;20072;-51
2022/01/17 08:36:55;;;;;;;5.68;1.30;;;;;;;;;;4406852;32;20422;-52
2022/01/17 08:39:24;;;;;;;4.32;1.17;;;;;;;;;;4414191;32;20426;-50
2022/01/17 08:41:53;;;;;;;3.70;1.20;;;;;;;;;;4407210;32;20539;-51
2022/01/17 08:44:22;;;;;;;2.37;1.00;;;;;;;;;;4413330;32;20319;-51
2022/01/17 08:46:51;;;;;;;3.42;1.08;;;;;;;;;;4415314;32;20374;-50
2022/01/17 08:49:19;;;;;;;2.83;1.08;;;;;;;;;;4415804;32;20048;-49
2022/01/17 08:51:48;;;;;;;4.50;1.20;;;;;;;;;;4408101;32;20038;-47
2022/01/17 08:54:16;;;;;;;4.57;0.90;;;;;;;;;;4408662;32;20684;-53
2022/01/17 08:56:44;;;;;;;3.08;1.00;;;;;;;;;;4401565;32;20193;-50
2022/01/17 08:59:13;;;;;;;5.62;1.40;;;;;;;;;;4405973;32;20093;-48
2022/01/17 09:01:41;;;;;;;5.43;1.15;;;;;;;;;;4412839;32;20026;-50
2022/01/17 09:04:10;;;;;;;5.70;1.10;;;;;;;;;;4403409;32;20039;-51
2022/01/17 09:06:38;;;;;;;4.82;1.08;;;;;;;;;;4399712;32;20047;-48
2022/01/17 09:09:06;;;;;;;6.55;1.20;;;;;;;;;;4408463;32;20034;-50
2022/01/17 09:11:35;;;;;;;3.37;1.33;;;;;;;;;;4414201;32;20035;-48
2022/01/17 09:14:03;;;;;;;2.60;1.00;;;;;;;;;;4411144;32;20049;-52
2022/01/17 09:16:32;;;;;;;3.25;0.98;;;;;;;;;;4411855;32;20089;-48
2022/01/17 09:19:07;;;;;;;5.97;1.33;;;;;;;;;;4412366;32;20422;-48
2022/01/17 09:21:35;;;;;;;2.90;1.25;;;;;;;;;;4407930;32;20101;-50
2022/01/17 09:24:04;;;;;;;4.72;1.30;;;;;;;;;;4404015;32;20018;-48
2022/01/17 09:26:32;;;;;;;3.75;1.10;;;;;;;;;;4413142;32;20094;-50
2022/01/17 09:29:01;;;;;;;4.03;1.12;;;;;;;;;;4408258;32;20027;-48
2022/01/17 09:31:29;;;;;;;4.12;1.20;;;;;;;;;;4404951;32;20061;-52
2022/01/17 09:33:57;;;;;;;4.07;1.02;;;;;;;;;;4405508;32;20043;-48
2022/01/17 09:36:29;;;;;;;3.65;1.30;;;;;;;;;;4406632;32;20030;-49
2022/01/17 09:38:57;;;;;;;3.65;1.20;;;;;;;;;;4418253;32;20046;-48
2022/01/17 09:41:26;;;;;;;3.92;1.33;;;;;;;;;;4411937;32;20107;-48
2022/01/17 09:43:54;;;;;;;2.78;1.12;;;;;;;;;;4414024;32;20091;-50
2022/01/17 09:46:26;;;;;;;3.10;0.90;;;;;;;;;;4410225;32;20124;-47
2022/01/17 09:49:02;;;;;;;1.50;0.90;;;;;;;;;;4410724;32;20053;-48
2022/01/17 09:52:01;;;;;;;4.05;1.30;;;;;;;;;;4417832;32;20079;-49
2022/01/17 09:54:31;;;;;;;3.67;1.20;;;;;;;;;;4409678;32;20065;-51
2022/01/17 09:57:01;;;;;;;3.80;1.30;;;;;;;;;;4416030;32;20047;-48
2022/01/17 09:59:31;;;;;;;3.10;1.10;;;;;;;;;;4417717;32;20038;-49
2022/01/17 10:01:59;;;;;;;3.60;1.40;;;;;;;;;;4411816;32;20026;-50
2022/01/17 10:04:28;;;;;;;4.55;1.17;;;;;;;;;;4407278;32;20054;-49
2022/01/17 10:06:59;;;;;;;6.85;1.48;;;;;;;;;;4415051;32;20087;-52
2022/01/17 10:09:28;;;;;;;5.32;1.40;;;;;;;;;;4411326;32;20046;-48
2022/01/17 10:12:02;;;;;;;3.83;1.10;;;;;;;;;;4412894;32;20433;-48
2022/01/17 10:14:35;;;;;;;5.32;1.10;;;;;;;;;;4405266;32;20440;-48
2022/01/17 10:17:05;;;;;;;7.75;1.58;;;;;;;;;;4414100;32;20091;-49
2022/01/17 10:19:33;;;;;;;4.18;1.58;;;;;;;;;;4411700;32;20043;-49
2022/01/17 10:22:07;;;;;;;3.85;1.15;;;;;;;;;;4410215;32;20069;-49
2022/01/17 10:35:26;;;;;;;6.22;1.65;;;;;;;;;;4410453;32;20027;-50
2022/01/17 10:37:55;;;;;;;6.80;1.52;;;;;;;;;;4413212;32;20405;-52
2022/01/17 10:40:23;;;;;;;8.00;1.60;;;;;;;;;;4412979;32;20523;-48
2022/01/17 10:42:54;;;;;;;6.57;1.73;;;;;;;;;;4413164;32;20026;-48
2022/01/17 10:45:24;;;;;;;7.10;1.50;;;;;;;;;;4412693;32;20398;-51
2022/01/17 10:47:55;;;;;;;6.30;1.55;;;;;;;;;;4415380;32;20088;-48
2022/01/17 10:50:27;;;;;;;5.62;1.60;;;;;;;;;;4407421;32;20445;-48
2022/01/17 10:52:57;;;;;;;7.12;1.70;;;;;;;;;;4407097;32;20031;-49
2022/01/17 10:55:27;;;;;;;7.20;1.75;;;;;;;;;;4410936;32;20438;-48
2022/01/17 10:57:57;;;;;;;7.20;1.92;;;;;;;;;;4410853;32;20034;-51
2022/01/17 11:00:30;;;;;;;9.63;1.87;;;;;;;;;;4420691;32;20827;-51
2022/01/17 11:03:04;;;;;;;11.93;2.10;;;;;;;;;;4403731;32;20362;-48
2022/01/17 11:05:33;;;;;;;8.13;1.92;;;;;;;;;;4407371;32;20185;-53
2022/01/17 11:08:02;;;;;;;8.77;1.83;;;;;;;;;;4403078;32;20051;-50
2022/01/17 11:10:36;;;;;;;6.22;1.85;;;;;;;;;;4413971;32;20047;-50
2022/01/17 11:13:04;;;;;;;;;;;;;;;;;;4405820;32;20047;-49
2022/01/17 11:15:33;;;;;;;12.18;2.28;;;;;;;;;;4412755;32;19972;-49
2022/01/17 11:18:10;;;;;;;10.40;2.50;;;;;;;;;;4405770;32;20064;-53
2022/01/17 11:20:38;;;;;;;10.40;2.45;;;;;;;;;;4410309;32;20095;-49
2022/01/17 11:23:07;;;;;;;14.68;2.20;;;;;;;;;;4409469;32;20411;-49
2022/01/17 11:25:36;;;;;;;9.85;2.10;;;;;;;;;;4408312;32;20384;-52
2022/01/17 11:28:06;;;;;;;10.20;2.50;;;;;;;;;;4413176;32;20054;-49
2022/01/17 11:30:35;;;;;;;10.05;2.42;;;;;;;;;;4411547;32;20077;-50
2022/01/17 11:33:04;;;;;;;9.10;2.15;;;;;;;;;;4412188;32;20436;-50
2022/01/17 11:35:37;;;;;;;10.50;2.20;;;;;;;;;;4407875;32;20425;-49
2022/01/17 11:38:09;;;;;;;10.13;2.33;;;;;;;;;;4415357;32;20110;-50
2022/01/17 11:40:39;;;;;;;14.63;2.10;;;;;;;;;;4409490;32;20074;-51
2022/01/17 11:43:17;;;;;;;17.70;2.70;;;;;;;;;;4408010;32;20045;-50
2022/01/17 11:45:46;;;;;;;18.52;3.03;;;;;;;;;;4402954;32;20050;-53
2022/01/17 11:48:21;;;;;;;15.10;2.95;;;;;;;;;;4404127;32;20134;-50
2022/01/17 11:50:52;;;;;;;18.67;3.10;;;;;;;;;;4405006;32;20112;-49
2022/01/17 11:53:20;;;;;;;19.05;3.33;;;;;;;;;;4412573;32;20084;-50
2022/01/17 11:55:49;;;;;;;15.10;2.45;;;;;;;;;;4410661;32;20318;-50
2022/01/17 11:58:25;;;;;;;17.40;2.53;;;;;;;;;;4407158;32;20426;-51
2022/01/17 12:01:00;;;;;;;14.82;2.35;;;;;;;;;;4413166;32;20034;-50
2022/01/17 12:03:28;;;;;;;13.77;2.70;;;;;;;;;;4411008;32;20498;-50
2022/01/17 12:06:04;;;;;;;13.60;2.40;;;;;;;;;;4405045;32;20047;-52
2022/01/17 12:08:32;;;;;;;13.65;2.85;;;;;;;;;;4401735;32;20134;-51
2022/01/17 12:11:01;;;;;;;15.20;2.65;;;;;;;;;;4423110;32;20075;-51
2022/01/17 12:13:39;;;;;;;12.82;2.90;;;;;;;;;;4408679;32;20125;-51
2022/01/17 12:16:37;;;;;;;14.15;2.90;;;;;;;;;;4408812;32;20528;-51
2022/01/17 12:19:07;;;;;;;15.35;3.20;;;;;;;;;;4402128;32;20319;-51
2022/01/17 12:21:57;;;;;;;11.32;2.70;;;;;;;;;;4405968;32;20043;-50
2022/01/17 12:24:33;;;;;;;11.52;2.83;;;;;;;;;;4409900;32;20490;-51
2022/01/17 12:27:01;;;;;;;12.88;3.00;;;;;;;;;;4410884;32;20046;-52
2022/01/17 12:29:37;;;;;;;13.95;3.40;;;;;;;;;;4402403;32;20049;-50
2022/01/17 12:32:34;;;;;;;9.82;3.05;;;;;;;;;;4410796;32;20057;-53
2022/01/17 12:35:07;;;;;;;8.52;2.47;;;;;;;;;;4407571;32;20552;-51
2022/01/17 12:37:40;;;;;;;19.33;2.95;;;;;;;;;;4409633;32;20409;-50
2022/01/17 12:40:18;;;;;;;14.25;2.75;;;;;;;;;;4407393;32;20491;-51
2022/01/17 12:42:59;;;;;;;11.68;2.40;;;;;;;;;;4413959;32;20396;-52
2022/01/17 12:45:43;;;;;;;12.73;3.00;;;;;;;;;;4403834;32;20042;-49
2022/01/17 12:48:17;;;;;;;10.15;2.55;;;;;;;;;;4413416;32;20072;-49
2022/01/17 12:50:46;;;;;;;12.65;2.62;;;;;;;;;;4415195;32;20365;-49
2022/01/17 12:53:16;;;;;;;11.30;2.62;;;;;;;;;;4415322;32;20070;-50
2022/01/17 12:55:45;;;;;;;11.80;2.80;;;;;;;;;;4406367;32;20037;-49
2022/01/17 12:58:21;;;;;;;10.48;2.75;;;;;;;;;;4407866;32;20060;-51
2022/01/17 13:00:51;;;;;;;10.05;2.33;;;;;;;;;;4411523;32;20041;-50
2022/01/17 13:03:21;;;;;;;9.43;2.90;;;;;;;;;;4406212;32;20062;-51
2022/01/17 13:05:50;;;;;;;11.27;2.78;;;;;;;;;;4409829;32;20071;-49
2022/01/17 13:08:19;;;;;;;11.82;2.85;;;;;;;;;;4406962;32;20054;-51
2022/01/17 13:10:52;;;;;;;13.38;2.90;;;;;;;;;;4408301;32;20066;-50
2022/01/17 13:13:21;;;;;;;15.68;2.37;;;;;;;;;;4409850;32;20064;-50
2022/01/17 13:16:21;;;;;;;10.70;2.47;;;;;;;;;;4413917;32;20038;-53
2022/01/17 13:18:51;;;;;;;13.95;2.60;;;;;;;;;;4377099;32;20369;-50
2022/01/17 13:21:20;;;;;;;11.85;2.67;;;;;;;;;;4413786;32;20418;-50
2022/01/17 13:23:54;;;;;;;10.82;2.55;;;;;;;;;;4409059;32;20084;-49
2022/01/17 13:26:26;;;;;;;10.77;2.40;;;;;;;;;;4407607;32;20420;-51
2022/01/17 13:28:55;;;;;;;11.25;2.35;;;;;;;;;;4412918;32;20078;-50
2022/01/17 13:31:25;;;;;;;10.57;2.35;;;;;;;;;;4407036;32;20484;-50
2022/01/17 13:33:54;;;;;;;17.12;3.03;;;;;;;;;;4407855;32;20510;-49
2022/01/17 13:36:27;;;;;;;6.97;2.50;;;;;;;;;;4402802;32;20055;-50
2022/01/17 13:38:59;;;;;;;8.13;2.03;;;;;;;;;;4413653;32;20050;-51
2022/01/17 13:41:28;;;;;;;11.50;2.58;;;;;;;;;;4409286;32;20030;-51
2022/01/17 13:43:57;;;;;;;12.00;2.75;;;;;;;;;;4404657;32;20126;-49
2022/01/17 13:46:25;;;;;;;7.32;1.90;;;;;;;;;;4413285;32;20046;-50
2022/01/17 13:48:53;;;;;;;9.20;2.37;;;;;;;;;;4397376;32;20472;-53
2022/01/17 13:51:24;;;;;;;9.05;2.50;;;;;;;;;;4409293;32;20039;-52
2022/01/17 13:53:55;;;;;;;9.95;2.20;;;;;;;;;;4411528;32;20074;-49
2022/01/17 13:56:30;;;;;;;9.38;2.33;;;;;;;;;;4411820;32;20046;-50
2022/01/17 13:58:59;;;;;;;6.12;1.75;;;;;;;;;;4411860;32;20421;-51
2022/01/17 14:01:31;;;;;;;9.82;2.15;;;;;;;;;;4413881;32;20053;-49
2022/01/17 14:04:04;;;;;;;6.28;1.90;;;;;;;;;;4407827;32;20055;-50
2022/01/17 14:06:34;;;;;;;7.82;2.05;;;;;;;;;;4410739;32;20050;-52
2022/01/17 14:09:05;;;;;;;9.98;2.50;;;;;;;;;;4413663;32;20042;-51
2022/01/17 14:11:35;;;;;;;9.88;2.35;;;;;;;;;;4405764;32;20035;-50
2022/01/17 14:14:07;;;;;;;9.60;2.20;;;;;;;;;;4414367;32;20049;-51
2022/01/17 14:16:36;;;;;;;10.05;2.33;;;;;;;;;;4410110;32;20467;-49
2022/01/17 14:19:09;;;;;;;10.13;2.10;;;;;;;;;;4407796;32;20038;-49
2022/01/17 14:22:06;;;;;;;7.97;1.90;;;;;;;;;;4414445;32;20128;-54
2022/01/17 14:24:38;;;;;;;11.57;2.28;;;;;;;;;;4412099;32;20046;-50
2022/01/17 14:27:20;;;;;;;10.68;2.33;;;;;;;;;;4412370;32;20065;-53
2022/01/17 14:29:49;;;;;;;11.82;2.30;;;;;;;;;;4417004;32;20042;-51
2022/01/17 14:32:19;;;;;;;13.75;2.35;;;;;;;;;;4417592;32;20034;-49
2022/01/17 14:34:51;;;;;;;11.38;2.42;;;;;;;;;;4414914;32;20080;-50
2022/01/17 14:37:24;;;;;;;8.55;2.58;;;;;;;;;;4410210;32;20069;-52
2022/01/17 14:40:00;;;;;;;13.90;2.87;;;;;;;;;;4408686;32;20117;-50
2022/01/17 14:42:33;;;;;;;13.73;2.97;;;;;;;;;;4414631;32;20110;-52
2022/01/17 14:45:08;;;;;;;13.07;2.05;;;;;;;;;;4407816;32;20088;-49
2022/01/17 14:47:41;;;;;;;12.70;2.17;;;;;;;;;;4412819;32;20053;-49
2022/01/17 14:50:11;;;;;;;9.32;1.95;;;;;;;;;;4418598;32;20053;-50
2022/01/17 14:52:40;;;;;;;12.30;2.25;;;;;;;;;;4414972;32;20039;-50
2022/01/17 15:00:40;;;;;;;13.62;2.40;;;;;;;;;;4404775;32;20047;-50
2022/01/17 15:03:26;;;;;;;9.10;2.10;;;;;;;;;;4410811;32;20039;-50
2022/01/17 15:05:55;;;;;;;11.70;2.60;;;;;;;;;;4414255;32;20081;-51
2022/01/17 15:08:24;;;;;;;8.73;2.30;;;;;;;;;;4406022;32;20114;-50
2022/01/17 15:10:52;;;;;;;14.68;2.37;;;;;;;;;;4418141;32;20042;-51
2022/01/17 15:13:20;;;;;;;13.65;2.75;;;;;;;;;;4415370;32;20039;-52
2022/01/17 15:15:49;;;;;;;17.35;3.05;;;;;;;;;;4408889;32;20415;-51
2022/01/17 15:18:17;;;;;;;13.98;2.58;;;;;;;;;;4413417;32;20026;-52
2022/01/17 15:20:46;;;;;;;13.00;2.37;;;;;;;;;;4414567;32;20038;-50
2022/01/17 15:23:18;;;;;;;13.85;2.72;;;;;;;;;;4404251;32;20035;-51
2022/01/17 15:25:46;;;;;;;13.73;3.10;;;;;;;;;;4410098;32;20076;-52
2022/01/17 15:28:15;;;;;;;15.25;3.10;;;;;;;;;;4410385;32;20029;-51
2022/01/17 15:30:54;;;;;;;12.50;2.45;;;;;;;;;;4419009;32;20059;-50
2022/01/17 15:33:23;;;;;;;17.17;2.75;;;;;;;;;;4411190;32;20076;-51